Date,TemperatureHighF,TemperatureAvgF,TemperatureLowF,DewpointHighF,DewpointAvgF,DewpointLowF,HumidityHigh,HumidityAvg,HumidityLow,PressureMaxIn,PressureMinIn,WindSpeedMaxMPH,WindSpeedAvgMPH,GustSpeedMaxMPH,PrecipitationSumIn
2013-1-1,27.7,16.9,6.8,17.2,11.7,4.2,92,80,55,29.99,29.82,8,0,11,0.00
2013-1-2,34.2,21.3,6.6,18.6,12.8,4.6,94,71,43,29.92,29.83,10,5,17,0.00
2013-1-3,38.5,27.7,18.1,27.8,23.1,12.5,97,83,63,30.09,29.85,10,4,16,0.06
2013-1-4,39.6,27.1,14.9,25.2,19.6,11.5,92,74,54,30.07,29.95,14,5,22,0.00
2013-1-5,41.5,35.0,30.6,35.1,29.1,-18.9,99,80,10,29.95,29.74,13,6,19,0.04
2013-1-6,37.9,29.2,21.6,33.5,22.9,18.2,90,77,57,30.06,29.73,14,5,23,0.01
2013-1-7,51.6,34.6,22.5,30.0,23.5,-3.1,90,67,10,30.03,29.80,13,6,17,0.00
2013-1-8,52.2,41.6,29.7,31.6,27.8,24.8,82,60,40,29.85,29.75,9,6,13,0.00
2013-1-9,52.2,41.7,32.0,36.9,31.6,28.4,94,54,51,30.18,29.83,6,3,10,0.00
2013-1-10,45.7,38.3,32.7,45.4,35.7,29.2,99,91,72,30.15,29.49,10,3,16,0.76
2013-1-11,61.9,53.4,45.0,53.4,48.8,44.5,99,86,69,29.53,29.41,17,9,27,0.01
2013-1-12,57.2,41.0,25.2,48.3,33.6,-2.1,99,76,53,29.72,29.44,14,5,22,0.00
2013-1-13,25.2,19.6,12.6,24.3,15.5,-6.1,98,84,68,30.02,29.63,0,0,0,0.00
2013-1-14,32.9,17.9,11.3,17.8,12.3,8.5,96,80,47,30.17,30.02,0,0,0,0.01
2013-1-15,33.8,20.7,8.1,21.4,15.0,6.7,96,79,52,30.09,29.82,5,0,7,0.00
2013-1-16,41.4,29.0,14.4,25.8,19.6,12.8,97,69,46,29.83,29.68,14,5,21,0.02
2013-1-17,36.7,31.1,21.6,32.5,23.2,15.6,98,74,50,30.15,29.79,13,5,57,0.00
2013-1-18,54.1,38.8,27.5,31.3,23.8,15.3,77,58,30,30.14,29.75,19,9,27,0.00
2013-1-19,59.2,48.8,39.9,37.3,32.1,24.9,72,53,40,29.84,29.62,17,9,29,0.00
2013-1-20,40.1,22.5,16.5,28.9,11.5,-23.4,87,63,36,30.06,29.84,103,6,103,0.00
2013-1-21,17.4,14.2,8.2,12.6,3.2,-7.6,84,63,36,30.09,29.97,17,4,27,0.00
2013-1-22,19.0,11.2,5.0,4.8,-0.1,-3.9,74,60,43,30.15,30.03,27,2,27,0.00
2013-1-23,39.6,23.3,7.2,19.9,12.5,2.2,93,65,42,30.08,29.86,17,5,26,0.00
2013-1-24,23.5,14.2,10.2,10.0,4.2,0.6,73,64,52,30.31,29.91,12,5,21,0.00
2013-1-25,43.0,31.3,23.5,23.1,15.7,8.9,76,53,34,29.92,29.80,11,4,18,0.00
2013-1-26,38.5,26.5,14.4,22.9,12.5,8.0,81,57,32,30.11,29.92,11,3,19,0.00
2013-1-27,51.1,35.1,24.3,50.8,32.7,-22.8,99,91,71,29.97,29.55,19,7,25,0.02
2013-1-28,70.2,59.6,50.5,62.7,57.4,50.3,99,93,76,29.64,29.47,17,7,25,0.00
2013-1-29,64.9,57.9,41.7,61.6,56.8,41.5,99,96,81,29.48,29.10,19,6,28,1.28
2013-1-30,41.7,30.8,22.6,40.7,27.9,14.2,99,89,69,29.56,28.99,15,3,26,0.64
2013-1-31,25.3,17.9,6.1,19.0,10.0,-2.1,90,71,56,30.04,29.55,16,8,25,0.14
2013-2-1,25.0,14.3,2.8,19.8,4.8,-2.7,91,66,44,30.12,29.82,14,5,19,0.00
2013-2-2,35.8,28.2,24.1,24.3,18.3,13.7,80,66,56,29.85,29.71,12,5,24,0.00
2013-2-3,37.2,27.6,24.1,21.6,17.8,-23.2,83,68,39,30.63,29.64,17,4,26,0.19
2013-2-4,43.2,30.3,25.9,30.7,22.9,13.5,90,74,61,29.67,26.64,15,5,22,0.00
2013-2-5,50.0,34.3,24.1,34.4,28.6,22.1,99,81,53,29.82,29.57,14,4,23,0.00
2013-2-6,52.5,37.9,22.8,34.1,30.3,22.6,99,77,43,29.91,29.70,14,4,18,0.00
2013-2-7,43.2,38.3,33.1,42.4,36.6,32.5,99,94,71,29.78,29.55,15,5,25,0.50
2013-2-8,34.5,31.8,28.8,32.8,29.8,26.6,99,92,81,30.06,29.78,14,5,20,0.00
2013-2-9,40.3,32.7,26.1,35.4,29.5,25.1,99,88,73,30.02,29.66,13,7,19,0.07
2013-2-10,57.4,45.7,35.4,53.2,41.1,29.7,99,87,37,29.68,29.17,21,10,29,0.46
2013-2-11,34.7,31.8,29.5,27.6,26.6,25.4,85,81,74,29.83,29.79,5,2,9,0.11
2013-2-12,44.8,32.8,23.9,29.7,25.6,22.1,99,77,45,29.84,29.62,5,1,10,0.00
2013-2-13,50.9,39.2,30.6,33.7,29.6,26.4,86,70,44,29.63,29.47,11,5,17,0.00
2013-2-14,51.4,43.8,35.8,35.7,32.7,30.7,83,66,50,29.68,29.45,13,7,22,0.00
2013-2-15,46.8,41.7,22.5,31.9,27.6,11.8,70,57,46,29.95,29.68,12,7,17,1.37
2013-2-16,35.6,23.8,15.1,17.8,12.6,9.6,89,64,37,29.95,29.81,11,4,17,0.00
2013-2-17,44.8,30.6,17.1,31.1,20.7,14.9,93,70,35,29.83,29.53,13,5,19,0.00
2013-2-18,55.9,41.7,27.0,49.5,36.1,19.5,99,81,62,29.55,29.15,21,10,32,0.35
2013-2-19,29.5,22.4,18.3,20.5,12.6,8.4,79,66,49,29.96,29.55,18,8,28,0.00
2013-2-20,23.5,17.9,7.7,14.8,9.1,3.2,84,69,51,30.10,29.95,11,3,15,0.00
2013-2-21,29.8,22.2,16.2,29.6,20.9,13.6,99,95,84,29.99,29.50,14,4,21,0.00
2013-2-22,31.6,28.5,23.0,31.4,25.8,18.4,99,90,78,29.70,29.43,0,0,0,0.00
2013-2-23,34.9,23.5,13.3,19.9,16.8,12.6,98,77,51,29.71,29.65,8,2,12,0.06
2013-2-24,42.8,30.0,11.1,25.9,20.1,9.6,95,69,36,29.82,29.66,8,2,12,0.00
2013-2-25,45.9,34.0,22.3,33.8,28.3,20.2,99,81,52,29.76,29.44,13,4,21,0.00
2013-2-26,47.7,32.6,31.3,33.9,32.2,30.5,99,98,82,29.45,29.13,14,8,22,0.27
2013-2-27,35.6,31.4,30.0,33.5,31.1,29.8,99,98,91,29.55,29.32,11,6,19,0.11
2013-2-28,33.4,30.9,28.8,30.6,29.6,28.3,99,95,84,29.79,29.54,9,5,16,0.00
2013-3-1,34.9,28.1,24.4,28.9,25.6,23.0,99,91,70,29.90,29.74,11,5,15,0.05
2013-3-2,34.5,26.1,16.0,23.2,17.4,10.5,94,71,44,29.96,29.87,12,5,17,0.00
2013-3-3,44.4,26.0,7.0,23.1,16.3,6.4,99,70,34,29.87,29.69,7,2,11,0.00
2013-3-4,44.6,35.1,29.5,32.9,29.6,23.1,99,81,58,29.70,29.49,13,5,19,0.01
2013-3-5,34.0,31.5,29.3,32.5,28.1,22.3,99,87,69,29.82,29.51,24,5,33,0.20
2013-3-6,36.3,28.1,16.2,24.6,22.1,14.8,96,78,60,30.05,29.81,18,6,27,0.00
2013-3-7,44.2,28.7,12.2,30.5,23.3,12.0,99,82,53,30.08,30.00,8,2,11,0.00
2013-3-8,49.3,37.0,25.0,35.0,31.0,24.6,99,81,57,30.07,29.84,14,4,19,0.00
2013-3-9,55.9,44.8,36.1,44.1,37.7,32.6,99,78,46,29.84,29.43,15,7,24,0.69
2013-3-10,54.0,48.4,40.5,50.8,46.9,36.2,99,96,52,29.44,29.27,15,4,23,0.77
2013-3-11,40.3,33.2,31.1,40.0,31.6,24.9,99,94,76,29.63,29.34,15,7,22,0.01
2013-3-12,43.2,32.4,24.6,32.5,25.9,22.1,92,77,58,29.86,29.60,16,7,32,0.00
2013-3-13,40.8,30.0,22.8,23.6,18.8,13.9,86,65,40,30.09,29.86,14,6,22,0.00
2013-3-14,58.5,38.8,21.9,37.1,27.0,18.3,88,64,35,30.03,29.75,12,4,19,0.00
2013-3-15,66.4,48.8,29.1,48.8,39.6,28.5,99,73,41,29.76,29.34,9,2,13,0.00
2013-3-16,51.1,40.0,35.4,47.2,37.4,31.5,99,91,82,29.75,29.32,14,5,24,0.00
2013-3-17,38.3,34.2,30.7,33.7,30.3,26.2,99,86,71,29.81,29.51,11,4,21,0.09
2013-3-18,67.3,37.0,30.0,40.3,30.9,18.2,99,81,41,29.68,29.37,20,6,33,0.09
2013-3-19,45.0,34.1,25.5,19.4,14.7,5.0,72,47,20,29.90,29.65,14,6,21,0.00
2013-3-20,33.8,29.8,29.5,23.7,20.0,19.4,68,66,58,29.85,29.82,11,8,19,0.00
2013-3-21,41.0,32.2,23.4,17.8,11.8,4.0,73,44,27,29.94,29.66,8,2,17,0.00
2013-3-22,40.8,30.5,16.9,24.9,20.1,14.9,97,68,41,29.87,29.81,7,1,11,0.00
2013-3-23,54.5,41.7,32.7,30.6,25.3,17.3,76,54,29,29.89,29.73,14,3,21,0.00
2013-3-24,37.9,30.4,28.9,32.6,30.1,28.7,99,99,75,29.77,29.47,13,3,21,0.00
2013-3-25,34.5,30.3,28.0,32.7,28.6,25.1,99,94,79,30.00,29.64,11,5,19,0.09
2013-3-26,43.7,34.0,26.8,28.0,24.8,20.5,88,71,42,30.15,30.00,8,4,14,0.00
2013-3-27,54.9,36.4,23.2,27.1,22.8,17.1,90,62,28,30.22,30.12,8,2,14,0.00
2013-3-28,51.3,38.7,26.6,35.2,28.7,23.5,93,69,44,30.18,30.09,9,3,15,0.00
2013-3-29,62.2,46.9,34.0,45.3,37.6,30.8,89,72,43,30.11,30.03,8,2,11,0.00
2013-3-30,55.8,46.6,34.3,46.6,42.1,33.7,99,86,58,30.03,29.73,16,6,22,0.00
2013-3-31,65.1,51.9,40.3,50.9,42.1,28.3,99,73,38,29.81,29.69,14,6,21,0.00
2013-4-1,47.7,38.3,30.4,30.8,21.9,12.1,78,54,26,30.08,29.81,16,7,24,0.00
2013-4-2,50.7,37.3,21.6,23.3,16.8,-4.8,86,49,11,30.16,30.07,9,3,14,0.00
2013-4-3,54.9,39.7,25.7,23.1,20.2,12.4,79,49,22,30.24,30.09,11,2,17,0.00
2013-4-4,65.3,45.9,27.9,28.7,22.3,10.6,83,46,12,30.09,29.88,9,1,12,0.00
2013-4-5,67.8,52.9,38.1,35.9,30.0,17.4,82,46,16,30.03,29.85,9,3,14,0.00
2013-4-6,74.5,61.8,50.7,52.4,37.1,25.1,68,43,18,29.85,29.53,25,10,34,0.02
2013-4-7,78.8,63.6,43.2,56.2,43.0,28.3,90,52,17,29.79,29.62,15,3,21,0.00
2013-4-8,77.9,66.0,55.4,61.6,58.5,52.5,97,78,52,29.70,29.49,16,5,25,0.14
2013-4-9,79.5,69.9,61.0,62.5,60.2,57.1,91,72,53,29.70,29.63,21,7,29,0.00
2013-4-10,69.6,54.6,46.8,64.6,53.3,46.5,99,96,80,29.77,29.47,19,5,24,1.50
2013-4-11,51.3,43.5,37.2,50.8,40.7,30.9,99,90,75,29.53,29.46,13,6,23,0.05
2013-4-12,43.3,39.4,36.7,36.9,33.5,31.0,85,79,75,29.81,29.49,14,7,24,0.00
2013-4-13,59.4,46.0,33.8,42.6,34.8,27.5,91,67,41,29.87,29.73,12,5,17,0.01
2013-4-14,80.4,62.8,45.5,54.7,45.4,32.3,93,58,18,29.74,29.43,22,10,31,0.28
2013-4-15,59.4,53.8,43.2,57.8,51.6,42.0,99,93,71,29.85,29.58,11,3,14,0.86
2013-4-16,51.6,46.0,40.6,46.6,41.8,39.0,99,86,68,30.00,29.80,11,4,17,0.34
2013-4-17,58.3,50.0,44.2,58.0,48.5,42.2,99,95,79,29.99,29.50,15,5,22,0.24
2013-4-18,64.6,52.2,38.1,64.3,50.7,32.8,99,94,80,29.59,29.32,25,7,35,0.92
2013-4-19,49.1,39.9,34.9,33.5,29.2,24.4,85,66,43,29.87,29.52,20,9,27,0.00
2013-4-20,59.0,42.6,26.6,33.9,28.1,15.1,99,61,21,30.16,29.87,8,2,17,0.00
2013-4-21,64.0,50.5,38.8,45.1,37.8,32.4,82,63,43,30.21,30.08,17,7,25,0.00
2013-4-22,70.7,59.0,44.8,47.6,37.8,26.4,71,49,23,30.09,29.83,16,6,22,0.00
2013-4-23,59.4,44.7,37.2,50.7,42.0,37.0,99,91,58,29.87,29.75,13,6,18,0.50
2013-4-24,54.3,42.9,34.3,37.9,32.8,25.6,99,72,35,30.03,29.83,11,6,20,0.02
2013-4-25,64.8,51.0,39.0,37.1,31.7,24.3,86,51,23,30.18,29.99,13,5,21,0.00
2013-4-26,61.9,53.6,45.5,48.4,43.4,32.7,85,69,53,30.17,30.07,17,6,29,0.00
2013-4-27,52.9,49.5,43.9,52.4,49.0,43.6,99,98,85,30.11,29.79,7,2,10,0.21
2013-4-28,63.9,54.7,50.7,55.7,52.1,50.3,99,91,69,29.79,29.72,9,4,12,0.00
2013-4-29,81.1,65.5,46.4,63.8,56.0,45.8,99,74,42,29.73,29.59,17,8,27,0.00
2013-4-30,88.0,75.4,63.3,62.7,55.6,36.2,94,56,18,29.81,29.60,16,8,24,0.00
2013-5-1,86.0,74.3,60.4,60.7,52.8,40.3,79,50,21,29.98,29.81,13,5,20,0.00
2013-5-2,68.9,51.4,39.2,61.4,47.1,38.9,99,86,73,30.07,29.96,16,7,23,0.31
2013-5-3,51.8,40.2,37.9,43.8,39.9,37.7,99,99,99,29.99,29.60,11,6,19,2.08
2013-5-4,51.3,45.5,40.5,49.3,44.7,40.0,99,97,88,29.87,29.60,9,2,11,0.06
2013-5-5,73.4,56.2,44.8,60.7,53.6,44.5,99,92,57,29.85,29.77,13,2,17,0.09
2013-5-6,79.5,64.4,53.1,58.3,53.3,43.6,99,71,31,29.86,29.80,14,3,19,0.01
2013-5-7,84.9,69.6,54.9,59.3,48.9,31.2,91,54,16,29.91,29.85,8,1,14,0.00
2013-5-8,84.0,68.4,54.3,59.8,52.4,39.3,99,63,23,29.91,29.84,13,2,24,0.01
2013-5-9,73.4,63.0,56.5,67.0,61.7,56.2,99,96,73,29.84,29.69,16,3,24,0.53
2013-5-10,60.1,56.5,51.8,59.8,55.4,51.4,99,96,87,29.85,29.68,10,4,15,0.01
2013-5-11,63.1,54.0,45.0,55.8,39.8,24.2,99,65,29,30.01,29.81,20,6,28,0.01
2013-5-12,62.8,49.8,38.8,35.4,29.3,16.6,80,48,21,30.08,29.99,12,4,17,0.00
2013-5-13,75.6,59.5,39.0,43.5,33.5,15.9,84,42,13,30.05,29.85,11,4,14,0.01
2013-5-14,92.1,75.2,56.8,61.3,51.7,43.2,78,48,22,29.85,29.64,14,6,26,0.00
2013-5-15,90.9,78.8,69.6,66.9,58.2,49.8,84,51,36,29.78,29.68,14,5,25,0.00
2013-5-16,86.4,73.0,62.6,68.8,64.8,59.0,99,78,46,29.82,29.73,10,3,14,0.00
2013-5-17,81.0,68.0,54.7,67.1,62.4,54.4,99,84,54,29.85,29.79,11,2,14,0.00
2013-5-18,84.2,72.0,61.3,70.0,64.8,61.1,99,81,50,29.88,29.75,11,4,15,0.00
2013-5-19,89.8,77.8,68.2,78.6,69.4,-33.0,99,77,52,29.77,29.55,34,6,34,0.14
2013-5-20,83.3,72.0,62.1,71.9,64.8,57.2,99,80,41,29.77,29.56,21,8,36,0.87
2013-5-21,81.0,70.2,62.6,67.0,63.9,60.3,99,82,55,29.63,29.56,13,5,20,0.00
2013-5-22,75.2,65.5,59.7,64.7,58.3,54.1,99,79,49,29.73,29.52,12,4,23,0.00
2013-5-23,74.5,60.1,52.0,59.8,55.0,50.0,99,84,49,30.11,29.71,14,4,21,0.00
2013-5-24,71.4,57.7,43.9,52.4,45.7,38.3,99,70,31,30.27,30.11,7,2,14,0.00
2013-5-25,67.8,55.8,50.4,57.0,51.7,46.1,99,87,65,30.22,30.01,14,3,20,0.45
2013-5-26,78.3,63.2,52.2,68.0,58.9,50.0,99,86,66,30.05,29.85,10,4,17,0.00
2013-5-27,76.5,66.7,61.5,70.4,65.2,61.3,99,95,74,29.86,29.54,11,3,19,1.84
2013-5-28,79.9,71.8,61.2,73.6,69.0,60.9,99,91,78,29.84,29.59,24,6,36,0.48
2013-5-29,87.3,74.8,61.2,72.5,66.4,60.9,99,77,51,29.82,29.67,15,6,22,0.02
2013-5-30,83.8,71.9,62.4,74.9,67.1,62.2,99,86,59,29.75,29.62,20,8,30,1.28
2013-5-31,77.4,66.0,61.7,74.6,65.6,61.4,99,99,89,29.77,29.55,17,3,24,0.92
2013-6-1,78.3,68.4,61.3,72.4,64.2,56.6,99,88,52,29.75,29.54,14,5,23,0.09
2013-6-2,66.6,60.9,55.6,61.1,56.4,50.2,99,86,71,29.90,29.72,11,4,16,0.00
2013-6-3,75.9,62.5,51.1,58.6,52.8,47.2,99,74,40,29.96,29.88,6,1,9,0.00
2013-6-4,77.9,63.8,49.6,59.7,55.5,49.4,99,77,47,29.97,29.87,9,2,15,0.00
2013-6-5,81.3,68.1,52.9,65.7,60.6,52.6,99,80,48,29.90,29.76,6,1,8,0.00
2013-6-6,80.6,68.8,60.1,67.0,60.1,50.1,99,77,36,29.79,29.72,9,3,14,0.00
2013-6-7,83.5,65.2,55.4,61.7,57.5,53.6,99,79,43,29.81,29.76,9,2,14,0.00
2013-6-8,81.5,67.9,52.3,61.2,56.6,52.1,99,71,40,29.83,29.77,9,2,13,0.00
2013-6-9,74.1,66.6,61.5,68.4,62.4,58.1,99,87,68,29.81,29.65,9,4,14,0.22
2013-6-10,81.3,68.6,60.4,67.1,63.3,60.2,99,85,55,29.79,29.62,10,2,14,0.01
2013-6-11,91.8,75.9,59.9,76.2,68.7,24.9,99,80,50,29.81,29.71,11,3,17,0.05
2013-6-12,94.5,82.5,67.5,76.7,72.6,67.2,99,74,46,29.80,29.58,18,5,30,0.00
2013-6-13,92.3,75.8,62.4,70.2,61.5,8.8,99,67,25,29.92,29.65,14,4,22,0.00
2013-6-14,85.5,70.3,58.6,71.4,62.6,55.9,99,79,38,30.01,29.80,10,2,14,0.02
2013-6-15,89.8,74.6,66.4,75.7,69.0,63.3,99,84,59,29.98,29.78,11,4,17,1.22
2013-6-16,88.3,75.0,65.8,76.1,70.6,65.6,99,87,62,29.90,29.79,8,2,14,0.04
2013-6-17,89.4,76.7,65.3,78.9,70.9,-60.1,99,84,55,29.86,29.79,8,1,11,0.00
2013-6-18,87.8,75.5,65.5,74.5,67.0,61.4,99,77,45,29.90,29.78,8,3,13,0.02
2013-6-19,92.3,75.2,60.8,68.2,62.2,53.9,99,69,30,29.97,29.89,4,0,9,0.00
2013-6-20,91.4,77.6,61.2,72.1,67.3,60.9,99,74,41,29.99,29.92,10,3,17,0.00
2013-6-21,93.0,82.6,70.9,78.5,74.2,70.4,99,77,56,29.97,29.85,11,4,16,0.04
2013-6-22,93.6,79.2,71.1,80.2,74.1,64.6,99,85,54,29.96,29.84,13,5,19,0.04
2013-6-23,89.6,74.0,67.8,77.4,69.5,64.4,99,87,64,29.94,29.75,13,4,20,0.39
2013-6-24,92.7,80.1,68.0,78.7,73.3,67.7,99,81,57,29.93,29.75,12,4,17,0.00
2013-6-25,93.6,82.4,72.9,79.3,75.2,71.6,99,80,57,29.82,29.69,12,4,24,0.01
2013-6-26,91.2,80.6,73.6,79.8,76.2,67.4,99,87,66,29.72,29.62,10,3,17,0.00
2013-6-27,91.6,81.0,72.1,78.7,72.3,64.0,99,77,44,29.80,29.69,8,3,16,0.00
2013-6-28,86.9,78.6,70.3,71.6,62.1,49.2,95,62,28,29.75,29.61,15,5,24,0.00
2013-6-29,79.2,69.8,62.4,70.8,64.3,58.8,99,83,61,29.67,29.57,14,5,21,0.20
2013-6-30,86.0,70.9,62.4,69.1,64.1,61.1,99,81,48,29.86,29.67,8,2,13,0.01
2013-7-1,85.8,67.6,58.8,66.1,60.6,52.2,99,80,49,29.99,29.79,7,1,10,0.00
2013-7-2,86.0,69.9,58.5,63.7,57.7,52.1,99,69,36,29.95,29.89,6,0,16,0.00
2013-7-3,87.1,70.7,57.9,66.5,62.0,57.7,99,77,41,29.97,29.90,6,1,8,0.00
2013-7-4,89.6,76.6,64.2,65.8,62.1,48.9,99,65,27,29.97,29.91,8,2,12,0.00
2013-7-5,88.9,76.3,61.2,69.5,64.5,53.1,99,71,33,29.97,29.90,8,3,12,0.00
2013-7-6,91.0,76.3,62.1,73.8,68.2,61.6,99,79,41,29.94,29.87,7,3,11,0.00
2013-7-7,94.1,81.2,68.7,76.1,69.9,64.6,92,71,44,29.94,29.88,9,4,15,0.00
2013-7-8,91.2,81.4,73.2,79.0,73.5,69.2,99,77,60,29.97,29.89,8,3,14,0.02
2013-7-9,95.4,84.7,75.9,79.2,75.9,72.4,96,76,51,29.93,29.81,11,4,20,0.01
2013-7-10,89.6,79.9,64.4,78.7,72.0,63.4,99,79,50,29.93,29.75,11,4,17,0.45
2013-7-11,93.0,75.1,60.4,70.5,62.6,55.0,99,72,30,30.01,29.92,4,0,7,0.00
2013-7-12,91.2,71.6,56.3,64.9,58.4,46.7,99,70,25,30.03,29.96,8,1,12,0.01
2013-7-13,92.3,74.0,55.4,68.0,61.8,55.1,99,70,33,30.01,29.94,6,1,9,0.00
2013-7-14,94.5,77.0,61.7,72.6,67.5,61.4,99,76,41,30.07,29.97,9,2,14,0.00
2013-7-15,95.0,79.0,67.3,82.3,74.3,66.8,99,87,53,30.15,30.05,11,1,19,0.31
2013-7-16,93.9,81.9,70.2,80.5,75.0,69.9,99,82,49,30.20,30.11,6,2,11,0.00
2013-7-17,100.2,84.4,70.9,82.1,75.9,70.6,99,79,41,30.22,30.11,6,1,9,0.00
2013-7-18,97.2,86.2,73.8,80.3,75.5,69.1,99,73,41,30.12,29.91,8,2,11,0.00
2013-7-19,98.4,86.5,77.4,75.9,72.6,63.9,86,66,34,29.92,29.77,9,4,15,0.00
2013-7-20,96.1,82.8,69.3,76.2,72.3,66.9,99,73,43,29.84,29.75,7,1,11,0.00
2013-7-21,84.0,73.3,66.0,76.8,71.8,65.8,99,95,73,29.83,29.73,8,1,11,0.30
2013-7-22,93.2,78.6,68.4,80.3,73.3,68.1,99,86,56,29.77,29.68,7,1,11,0.01
2013-7-23,90.5,77.0,63.5,75.3,68.3,62.9,99,76,47,29.85,29.67,9,2,14,0.00
2013-7-24,88.7,71.0,57.9,64.7,60.2,53.1,99,74,33,29.96,29.83,6,0,9,0.00
2013-7-25,88.0,70.8,53.8,67.5,60.0,53.5,99,74,36,30.02,29.94,6,1,8,0.00
2013-7-26,81.7,70.4,61.5,74.0,67.0,61.1,99,89,73,29.97,29.82,10,3,18,1.25
2013-7-27,73.4,63.8,51.6,61.3,55.2,47.9,99,77,43,29.91,29.85,12,4,22,0.00
2013-7-28,81.5,64.7,48.9,58.5,52.7,46.1,99,71,31,29.96,29.86,10,2,15,0.00
2013-7-29,54.5,53.4,52.3,54.2,53.1,52.1,99,99,99,29.97,29.95,0,0,0,0.00
2013-7-30,78.8,70.0,63.9,74.1,69.0,63.6,99,97,84,30.01,29.89,7,2,12,1.43
2013-7-31,78.4,71.4,66.0,72.5,69.7,65.7,99,95,78,29.95,29.89,6,2,9,0.00
2013-8-1,94.5,74.8,64.8,73.4,66.3,58.3,99,79,32,29.97,29.86,7,2,9,0.00
2013-8-2,85.1,74.0,66.4,77.1,70.1,64.3,99,88,71,29.87,29.81,8,3,13,0.00
2013-8-3,89.8,75.0,60.8,74.4,65.9,59.1,99,78,41,30.03,29.82,7,1,11,0.00
2013-8-4,84.7,70.0,56.8,68.1,62.6,56.6,99,80,47,30.08,29.97,4,0,7,0.00
2013-8-5,80.6,70.7,60.6,72.7,68.3,60.4,99,92,73,30.00,29.74,9,3,14,0.00
2013-8-6,90.1,77.1,66.4,80.9,73.5,66.1,99,89,65,29.80,29.73,7,2,11,0.00
2013-8-7,90.0,76.7,70.9,81.1,75.1,70.6,99,95,70,29.84,29.69,8,2,14,0.00
2013-8-8,90.0,73.8,63.7,76.6,70.5,63.2,99,90,62,29.89,29.81,5,1,8,0.01
2013-8-9,89.1,74.3,64.2,73.2,67.8,61.9,99,83,49,29.97,29.86,3,0,6,0.00
2013-8-10,90.1,74.1,59.4,70.6,64.1,57.4,99,76,39,30.07,29.97,8,1,11,0.00
2013-8-11,88.9,72.5,56.5,71.3,63.7,56.2,99,78,43,30.04,29.95,6,1,9,0.00
2013-8-12,85.1,73.9,63.9,77.8,70.5,63.4,99,90,75,29.97,29.81,6,2,10,0.06
2013-8-13,87.4,70.4,55.0,71.8,63.0,54.6,99,81,43,30.05,29.86,5,1,11,0.00
2013-8-14,83.3,63.3,47.3,60.3,53.4,47.0,99,76,32,30.10,30.03,3,0,7,0.01
2013-8-15,57.2,53.3,52.5,56.2,53.0,52.3,99,99,99,30.05,30.01,2,0,3,0.00
2013-8-16,87.1,68.4,55.0,65.8,59.6,54.8,99,78,40,30.07,30.00,6,0,9,0.00
2013-8-17,87.6,68.2,52.9,67.5,58.2,51.7,99,76,32,30.09,30.03,6,1,10,0.00
2013-8-18,89.8,70.6,54.3,69.3,61.8,54.1,99,78,41,30.08,30.00,4,0,7,0.00
2013-8-19,88.9,73.8,59.9,78.3,66.6,59.6,99,81,46,30.03,29.93,8,1,12,0.00
2013-8-20,90.9,77.8,63.1,73.6,68.7,62.9,99,76,45,30.00,29.94,8,3,12,0.00
2013-8-21,84.7,74.6,65.5,71.8,66.9,59.4,99,79,45,30.06,29.92,5,1,10,0.08
2013-8-22,94.3,79.7,70.0,79.3,73.9,69.4,99,84,54,29.97,29.90,9,1,14,0.00
2013-8-23,95.4,78.3,66.4,77.6,71.3,66.1,99,82,47,30.01,29.94,6,1,10,0.00
2013-8-24,91.6,77.0,63.5,76.1,70.6,63.2,99,83,52,30.09,29.99,7,2,11,0.00
2013-8-25,93.0,79.9,69.6,72.9,69.9,67.1,98,74,45,30.12,30.05,7,3,11,0.00
2013-8-26,97.2,82.5,71.2,78.5,73.5,68.3,99,77,42,30.06,29.92,8,2,14,0.00
2013-8-27,97.9,83.9,73.6,76.0,69.1,56.3,99,66,27,29.94,29.86,9,3,15,0.00
2013-8-28,100.2,84.7,72.7,74.1,69.4,64.0,86,63,33,29.90,29.84,9,3,15,0.00
2013-8-29,104.4,84.6,68.9,81.3,73.7,67.2,99,73,33,29.93,29.84,6,1,9,0.00
2013-8-30,102.2,86.7,72.5,78.8,73.2,65.3,99,69,31,29.85,29.70,8,2,13,0.00
2013-8-31,100.2,86.0,73.6,79.3,74.9,71.2,99,71,46,29.71,29.64,9,3,15,0.00
2013-9-1,93.7,79.0,68.2,79.1,70.4,61.7,99,78,39,29.77,29.66,9,2,13,0.00
2013-9-2,89.8,72.3,56.5,68.7,61.7,54.3,99,74,30,29.88,29.76,8,2,12,0.00
2013-9-3,93.0,69.1,53.1,67.7,57.8,46.8,99,75,24,29.97,29.87,5,1,9,0.00
2013-9-4,94.6,72.2,54.5,69.6,59.1,47.6,99,73,21,30.03,29.93,5,1,8,0.00
2013-9-5,95.9,75.9,59.7,68.9,61.6,49.1,99,68,23,30.07,30.00,6,1,11,0.00
2013-9-6,91.4,75.2,59.0,71.2,63.6,51.1,99,73,26,30.05,29.90,8,2,12,0.00
2013-9-7,97.9,80.2,65.3,73.9,66.9,61.6,99,68,31,29.91,29.77,9,3,13,0.00
2013-9-8,91.9,78.7,70.2,77.4,73.4,67.9,99,85,57,29.88,29.74,10,3,17,0.84
2013-9-9,98.8,83.8,71.4,76.0,72.0,65.3,99,72,35,29.84,29.75,27,3,27,0.00
2013-9-10,97.3,84.2,74.3,73.4,68.6,61.1,82,62,32,29.95,29.83,8,3,16,0.00
2013-9-11,97.9,83.4,72.5,72.0,67.2,58.0,85,61,27,29.99,29.91,7,2,12,0.00
2013-9-12,86.0,73.2,60.6,73.4,63.5,40.8,99,76,25,29.98,29.89,9,3,16,1.20
2013-9-13,83.7,63.7,47.3,62.0,50.7,31.7,99,71,16,30.04,29.97,4,1,8,0.00
2013-9-14,78.8,60.0,43.9,57.0,49.0,41.1,99,73,28,30.03,29.87,7,1,11,0.00
2013-9-15,81.1,65.5,58.3,69.7,58.7,46.4,99,80,49,30.02,29.83,11,4,17,0.09
2013-9-16,78.3,61.9,53.1,64.5,58.0,52.8,99,88,58,30.17,30.01,3,0,10,0.01
2013-9-17,68.4,60.4,51.3,66.7,59.4,51.0,99,97,85,30.12,29.92,6,2,10,0.00
2013-9-18,88.3,73.6,59.7,76.1,69.3,59.5,99,87,64,29.93,29.78,11,4,17,0.00
2013-9-19,91.9,79.2,67.8,75.8,72.8,67.6,99,82,54,29.83,29.70,13,5,26,0.50
2013-9-20,72.7,66.0,52.7,68.1,62.3,52.4,99,89,60,29.80,29.73,9,3,14,0.11
2013-9-21,97.7,67.3,49.6,73.9,56.7,48.0,99,76,32,30.01,29.76,7,2,13,0.00
2013-9-22,83.5,60.1,44.8,61.2,51.3,44.5,99,79,34,30.01,29.92,6,1,11,0.01
2013-9-23,78.4,60.3,45.9,59.0,52.4,45.6,99,79,43,30.01,29.93,10,2,17,0.01
2013-9-24,81.7,64.1,48.4,65.2,58.2,48.1,99,83,54,29.95,29.81,12,2,17,0.00
2013-9-25,90.0,69.7,56.3,68.7,62.6,56.0,99,82,43,29.89,29.81,4,0,8,0.00
2013-9-26,87.3,69.6,55.8,70.6,62.5,55.5,99,82,44,30.01,29.88,8,2,13,0.00
2013-9-27,85.5,69.3,55.9,69.8,60.2,55.5,99,77,40,30.08,30.00,11,3,17,0.00
2013-9-28,81.0,68.2,58.5,74.1,64.2,56.4,99,88,65,30.03,29.90,11,4,20,0.27
2013-9-29,83.5,62.2,47.7,62.0,52.2,37.1,99,77,22,30.07,29.97,7,1,11,0.01
2013-9-30,81.7,62.0,43.7,64.5,55.5,43.4,99,83,49,29.97,29.87,9,2,13,0.01
2013-10-1,86.9,71.4,61.7,73.1,68.0,61.3,99,90,56,29.99,29.88,7,3,13,0.00
2013-10-2,91.4,74.3,61.2,75.6,69.5,60.9,99,87,53,30.04,29.94,6,2,11,0.00
2013-10-3,86.4,71.4,63.1,77.9,69.5,62.9,99,94,68,29.95,29.79,16,3,23,0.53
2013-10-4,90.3,76.2,64.2,76.1,70.6,64.0,99,84,50,29.92,29.86,9,4,16,0.00
2013-10-5,74.8,66.3,51.1,73.7,65.8,50.8,99,98,85,29.92,29.81,9,4,17,0.01
2013-10-6,55.0,48.7,42.6,50.6,46.2,41.2,99,92,71,29.84,29.75,11,4,17,0.05
2013-10-7,73.2,57.7,46.2,55.1,50.1,44.6,99,80,37,30.09,29.82,9,3,15,0.00
2013-10-8,79.9,64.7,53.6,55.9,50.9,45.3,88,64,33,30.15,30.07,8,3,13,0.00
2013-10-9,57.9,53.4,46.4,51.1,49.6,46.1,99,87,78,30.11,30.08,4,1,8,0.00
2013-10-10,81.0,62.6,46.4,64.8,55.8,46.1,99,82,42,30.11,29.97,7,1,10,0.00
2013-10-11,81.3,66.0,53.1,65.7,58.2,52.8,99,79,42,29.98,29.87,13,4,20,0.00
2013-10-12,76.3,65.2,54.1,65.9,53.0,36.8,99,70,25,30.20,29.89,9,3,14,0.00
2013-10-13,80.1,58.3,40.8,45.1,36.9,17.3,96,54,11,30.38,30.19,6,1,11,0.00
2013-10-14,71.4,54.0,37.4,55.4,43.2,37.1,99,72,32,30.33,30.01,8,2,14,0.01
2013-10-15,71.2,60.2,49.5,67.5,56.5,44.3,99,88,58,30.01,29.83,9,4,16,0.22
2013-10-16,55.2,49.6,44.4,47.8,44.9,43.1,99,84,69,29.98,29.91,9,3,14,0.00
2013-10-17,66.7,52.6,45.3,53.4,46.0,38.6,99,82,38,29.95,29.85,10,3,19,0.01
2013-10-18,58.5,47.5,41.0,46.6,42.5,37.2,99,85,50,30.01,29.85,11,4,17,0.00
2013-10-19,59.9,46.3,36.1,44.7,39.2,32.6,99,80,36,29.95,29.85,11,4,21,0.00
2013-10-20,74.7,57.1,44.8,47.7,41.5,32.3,89,61,24,29.86,29.76,14,5,25,0.00
2013-10-21,79.5,58.8,34.3,55.6,48.7,31.8,98,73,33,30.09,29.91,8,2,13,0.25
2013-10-22,54.9,42.0,34.7,50.0,40.8,34.5,99,95,81,29.92,29.69,15,4,24,0.02
2013-10-23,51.3,40.0,32.9,38.6,34.7,27.1,99,83,45,30.01,29.88,10,4,17,0.00
2013-10-24,43.9,36.3,25.0,38.6,29.5,24.0,99,78,53,30.25,29.99,13,4,21,0.07
2013-10-25,58.8,42.0,28.9,36.6,28.8,21.4,98,65,25,30.33,30.03,10,3,17,0.00
2013-10-26,61.9,48.6,37.6,41.9,31.2,19.7,72,53,24,30.04,29.89,14,5,24,0.00
2013-10-27,62.8,45.0,28.9,37.3,30.4,24.9,99,62,24,30.03,29.91,9,2,14,0.00
2013-10-28,73.2,49.5,29.1,46.4,33.8,21.0,99,64,17,30.15,29.92,7,1,11,0.00
2013-10-29,63.0,48.5,39.7,62.7,46.1,35.2,99,92,70,30.15,29.96,7,1,11,0.04
2013-10-30,68.0,59.9,54.0,65.4,59.6,53.7,99,99,99,29.96,29.66,11,2,20,1.29
2013-10-31,71.4,55.8,45.0,65.0,55.5,44.7,99,99,99,29.66,29.27,15,5,21,1.58
2013-11-1,58.5,49.1,42.6,49.0,44.4,41.6,99,85,60,29.72,29.44,11,4,21,0.01
2013-11-2,55.9,46.1,34.9,45.1,39.3,32.7,99,79,47,30.05,29.71,13,4,22,0.00
2013-11-3,60.4,44.9,28.6,40.6,34.7,28.3,99,71,34,30.14,30.00,11,3,17,0.00
2013-11-4,59.7,51.4,45.1,48.2,43.5,38.0,82,74,61,30.07,29.94,12,5,18,0.00
2013-11-5,59.0,54.1,52.0,55.7,53.3,48.2,99,97,82,30.10,29.81,14,5,20,0.51
2013-11-6,58.1,45.7,34.9,57.8,44.7,33.0,99,96,84,30.12,29.73,12,6,24,0.47
2013-11-7,55.8,40.4,28.6,41.8,33.9,28.3,99,80,42,30.20,30.12,10,2,15,0.00
2013-11-8,56.5,44.0,26.6,38.5,32.3,25.1,99,67,33,30.20,29.86,17,5,23,0.00
2013-11-9,68.7,55.4,46.8,43.9,37.5,22.8,82,54,19,30.16,29.85,14,6,25,0.00
2013-11-10,60.8,45.3,35.1,36.4,32.5,25.6,85,63,27,30.31,30.13,8,2,12,0.00
2013-11-11,60.6,44.4,26.8,49.0,36.0,23.5,99,75,51,30.42,30.03,14,6,21,0.00
2013-11-12,38.8,25.5,16.0,23.6,17.9,13.1,96,74,45,30.67,30.42,10,3,15,0.00
2013-11-13,48.6,33.2,15.4,19.8,12.1,-6.1,99,49,11,30.54,30.09,11,5,17,0.00
2013-11-14,58.8,44.4,34.7,21.1,15.3,0.0,51,33,10,30.09,29.87,12,6,21,0.00
2013-11-15,59.9,47.6,41.7,46.5,34.1,20.8,97,61,37,29.90,29.75,11,5,17,0.00
2013-11-16,64.4,56.7,46.9,61.0,55.2,45.5,99,95,80,29.75,29.44,19,9,29,0.09
2013-11-17,75.2,59.9,43.3,67.1,53.7,40.1,99,82,47,29.84,29.19,26,8,40,1.22
2013-11-18,54.0,43.4,30.2,43.4,34.3,25.9,99,73,37,30.18,29.84,14,4,23,0.00
2013-11-19,51.3,36.9,26.1,32.8,29.1,25.1,99,76,41,30.22,30.06,10,3,14,0.00
2013-11-20,41.4,37.6,34.5,40.9,35.3,30.3,99,92,79,30.07,29.83,14,6,21,0.33
2013-11-21,50.5,46.6,40.8,50.3,45.6,40.6,99,97,86,30.13,29.91,8,2,14,0.40
2013-11-22,40.8,33.3,24.8,40.6,32.8,24.4,99,98,91,30.41,30.12,14,6,20,0.06
2013-11-23,27.0,21.7,13.3,24.4,16.3,10.6,99,80,58,30.60,30.39,17,7,25,0.00
2013-11-24,32.5,20.2,8.4,17.0,10.6,4.2,99,69,33,30.60,30.23,10,2,14,0.00
2013-11-25,34.7,30.3,24.4,21.5,16.5,12.8,75,56,44,30.23,30.01,11,4,19,0.00
2013-11-26,37.9,28.3,19.0,30.2,21.0,9.7,94,75,50,30.13,29.94,17,6,26,0.00
2013-11-27,31.1,20.3,13.1,12.1,9.1,4.8,83,64,35,30.22,30.06,10,4,17,0.00
2013-11-28,43.5,29.5,17.2,23.1,18.2,10.7,83,64,42,30.36,30.01,11,4,17,0.00
2013-11-29,44.8,28.6,14.9,25.0,20.3,13.3,99,74,40,30.44,30.26,10,2,14,0.00
2013-11-30,27.0,21.6,12.7,24.0,16.2,10.4,99,80,59,30.64,30.43,15,7,22,0.00
2013-12-1,41.0,23.3,8.6,34.7,14.4,4.1,99,72,33,30.64,29.85,7,2,10,0.00
2013-12-2,51.4,39.7,33.3,43.6,37.1,31.2,99,91,71,29.86,29.58,7,2,10,0.00
2013-12-3,56.7,45.5,34.3,54.7,45.1,33.9,99,99,92,29.59,29.50,12,3,17,0.00
2013-12-4,63.5,48.2,29.5,57.9,46.8,27.3,99,95,72,29.80,29.41,14,5,22,0.00
2013-12-5,29.3,22.8,19.2,27.3,15.8,10.6,92,74,63,30.22,29.79,13,6,22,0.00
2013-12-6,19.2,15.5,10.2,12.6,6.9,1.6,80,68,51,30.50,30.19,12,7,20,0.00
2013-12-7,29.3,14.5,5.4,8.7,4.3,-1.9,89,67,28,30.64,30.37,8,3,13,0.00
2013-12-8,24.6,21.1,15.6,24.4,18.2,8.0,99,88,69,30.36,29.90,8,3,15,0.00
2013-12-9,23.7,18.0,10.6,23.5,13.1,5.8,99,81,68,30.22,29.97,11,4,20,0.00
2013-12-10,34.0,19.4,8.1,15.6,9.0,1.9,91,66,36,30.19,30.01,14,4,23,0.00
2013-12-11,27.1,18.0,1.0,20.6,8.1,-7.5,90,67,27,30.53,30.12,17,5,25,0.00
2013-12-12,41.2,22.3,0.5,18.6,8.9,-2.5,92,59,32,30.50,30.10,11,4,20,0.00
2013-12-13,38.3,31.7,23.7,32.5,25.3,17.9,99,79,46,30.10,29.84,10,2,14,0.07
2013-12-14,31.8,27.8,21.0,31.6,27.6,20.8,99,99,99,30.03,29.77,0,0,0,0.00
2013-12-15,35.8,21.8,14.4,26.9,20.2,14.2,99,94,64,30.05,29.93,3,0,5,0.00
2013-12-16,29.8,22.3,16.9,26.7,21.6,16.7,99,97,85,30.04,29.89,5,1,9,0.00
2013-12-17,41.5,30.0,22.5,34.4,25.2,16.3,99,83,58,30.15,30.00,11,4,16,0.00
2013-12-18,48.4,37.2,21.6,35.6,24.4,13.7,77,60,38,30.13,29.78,16,8,24,0.00
2013-12-19,56.5,48.9,43.2,50.1,44.1,35.6,98,84,70,29.80,29.66,15,7,21,0.00
2013-12-20,52.0,39.7,28.9,51.2,39.4,28.5,99,99,98,29.79,29.61,10,3,14,0.09
2013-12-21,30.9,29.2,27.9,30.7,29.0,27.6,99,99,99,29.78,29.51,0,0,0,0.00
2013-12-22,31.8,27.7,18.5,31.6,27.5,17.6,99,99,96,30.18,29.54,0,0,0,0.00
2013-12-23,18.3,15.4,11.5,17.9,14.4,10.0,99,96,86,30.42,30.17,0,0,0,0.00
2013-12-29,15.1,11.7,8.1,11.2,4.7,-1.0,85,73,62,30.18,30.11,13,6,17,0.00
2013-12-30,24.8,13.4,2.3,12.8,1.8,-6.7,83,61,25,30.23,30.04,8,2,11,0.00
2013-12-31,40.3,26.3,15.4,25.0,19.1,12.4,99,75,49,30.26,30.01,10,3,14,0.00
2014-1-1,28.2,20.7,14.7,23.8,19.6,14.5,99,95,82,30.06,29.99,14,3,21,0.00
2014-1-2,21.6,11.6,-1.1,14.5,8.2,-4.6,99,86,66,30.36,30.03,14,6,21,0.00